Time;durP1;ratioP1;P1;durP2;ratioP2;P2;SDS_P1;SDS_P2;PMS_P1;PMS_P2;Temp;Humidity;BMP_temperature;BMP_pressure;BME280_temperature;BME280_humidity;BME280_pressure;Samples;Min_cycle;Max_cycle;Signal;HPM_P1;HPM_P2
2023/11/02 00:01:55;;;;;;;0.70;0.70;;;-0.80;99.90;;;;;;5054031;28;20197;-69
2023/11/02 00:04:23;;;;;;;0.70;0.70;;;-0.90;99.90;;;;;;5072279;28;20219;-70
2023/11/02 00:06:50;;;;;;;0.70;0.70;;;-0.90;99.90;;;;;;5087801;28;20196;-69
2023/11/02 00:09:36;;;;;;;0.70;0.70;;;-0.80;99.90;;;;;;5092537;28;20667;-69
2023/11/02 00:12:07;;;;;;;0.70;0.70;;;-0.80;99.90;;;;;;5092255;28;20647;-69
2023/11/02 00:14:47;;;;;;;1.25;1.17;;;-0.80;99.90;;;;;;5091936;28;20188;-69
2023/11/02 00:17:35;;;;;;;1.20;1.15;;;-0.80;99.90;;;;;;5092069;28;20208;-69
2023/11/02 00:20:08;;;;;;;1.30;0.95;;;-0.80;99.90;;;;;;5091739;28;20200;-70
2023/11/02 00:22:42;;;;;;;0.70;0.70;;;-0.80;99.90;;;;;;5091806;28;20192;-70
2023/11/02 00:25:09;;;;;;;0.70;0.70;;;-0.80;99.90;;;;;;5091843;28;20666;-69
2023/11/02 00:27:36;;;;;;;0.70;0.70;;;-0.80;99.90;;;;;;5091920;28;20562;-68
2023/11/02 00:30:04;;;;;;;0.70;0.70;;;-0.80;99.90;;;;;;5073583;28;20198;-70
2023/11/02 00:32:30;;;;;;;0.80;0.80;;;-0.70;99.90;;;;;;5091347;28;20647;-74
2023/11/02 00:34:56;;;;;;;0.73;0.73;;;-0.70;99.90;;;;;;5091307;28;20211;-74
2023/11/02 00:37:22;;;;;;;0.65;0.65;;;-0.70;99.90;;;;;;5076327;28;20664;-75
2023/11/02 00:39:47;;;;;;;0.68;0.68;;;-0.70;99.90;;;;;;5070914;28;20250;-75
2023/11/02 00:42:14;;;;;;;0.50;0.50;;;-0.70;99.90;;;;;;5070825;28;20245;-74
2023/11/02 00:44:41;;;;;;;0.80;0.80;;;-0.70;99.90;;;;;;5089426;28;20954;-74
2023/11/02 00:47:07;;;;;;;0.80;0.80;;;-0.70;99.90;;;;;;5072668;28;20494;-75
2023/11/02 00:49:35;;;;;;;0.70;0.70;;;-0.70;99.90;;;;;;5090854;28;20317;-73
2023/11/02 00:52:02;;;;;;;0.70;0.70;;;-0.70;99.90;;;;;;5090695;28;20193;-75
2023/11/02 00:54:43;;;;;;;0.70;0.70;;;-0.70;99.90;;;;;;5091376;28;20201;-74
2023/11/02 00:57:22;;;;;;;0.73;0.73;;;-0.60;99.90;;;;;;5110961;28;20207;-74
2023/11/02 00:59:48;;;;;;;0.70;0.70;;;-0.60;99.90;;;;;;5110934;28;20271;-75
2023/11/02 01:02:14;;;;;;;0.70;0.70;;;-0.60;99.90;;;;;;5111135;28;20207;-75
2023/11/02 01:04:40;;;;;;;0.68;0.68;;;-0.60;99.90;;;;;;5110700;28;20222;-74
2023/11/02 01:07:06;;;;;;;0.90;0.90;;;-0.60;99.90;;;;;;5110689;28;20655;-72
2023/11/02 01:09:37;;;;;;;0.70;0.70;;;-0.60;99.90;;;;;;5110801;28;20237;-74
2023/11/02 01:12:05;;;;;;;0.70;0.70;;;-0.70;99.90;;;;;;5110817;28;20195;-75
2023/11/02 01:14:48;;;;;;;0.70;0.70;;;-0.60;99.90;;;;;;5110833;28;20195;-74
2023/11/02 01:17:32;;;;;;;0.73;0.73;;;-0.60;99.90;;;;;;5091609;28;20293;-74
2023/11/02 01:20:33;;;;;;;0.70;0.70;;;-0.60;99.90;;;;;;5110775;28;20654;-75
2023/11/02 01:23:19;;;;;;;0.73;0.73;;;-0.60;99.90;;;;;;5110227;28;20208;-73
2023/11/02 01:25:49;;;;;;;0.70;0.70;;;-0.50;99.90;;;;;;5110487;28;20656;-75
2023/11/02 01:28:19;;;;;;;0.80;0.80;;;-0.50;99.90;;;;;;5110930;28;20180;-75
2023/11/02 01:30:53;;;;;;;0.70;0.70;;;-0.60;99.90;;;;;;5109933;28;20194;-75
2023/11/02 01:33:47;;;;;;;0.70;0.70;;;-0.60;99.90;;;;;;5097923;28;20680;-74
2023/11/02 01:36:24;;;;;;;0.70;0.70;;;-0.60;99.90;;;;;;5090111;28;20249;-74
2023/11/02 01:38:56;;;;;;;0.60;0.60;;;-0.60;99.90;;;;;;5091106;28;20654;-74
2023/11/02 01:41:33;;;;;;;0.70;0.70;;;-0.50;99.90;;;;;;5110469;28;20206;-75
2023/11/02 01:44:10;;;;;;;0.50;0.50;;;-0.50;99.90;;;;;;5110475;28;21002;-73
2023/11/02 01:46:50;;;;;;;0.55;0.55;;;-0.50;99.90;;;;;;5106779;28;20184;-74
2023/11/02 01:49:20;;;;;;;0.70;0.70;;;-0.50;99.90;;;;;;5089836;28;20210;-75
2023/11/02 01:51:59;;;;;;;0.70;0.70;;;-0.50;99.90;;;;;;5089710;28;20184;-74
2023/11/02 01:54:44;;;;;;;0.60;0.60;;;-0.50;99.90;;;;;;5088740;28;20295;-73
2023/11/02 01:57:23;;;;;;;0.70;0.70;;;-0.50;99.90;;;;;;5069624;28;20210;-74
2023/11/02 02:00:04;;;;;;;0.68;0.68;;;-0.40;99.90;;;;;;5051248;28;20282;-74
2023/11/02 02:02:54;;;;;;;0.60;0.60;;;-0.40;99.90;;;;;;5069125;28;20200;-75
2023/11/02 02:06:02;;;;;;;0.63;0.63;;;-0.40;99.90;;;;;;5071989;28;20211;-75
2023/11/02 02:08:56;;;;;;;0.60;0.60;;;-0.40;99.90;;;;;;4987239;28;20214;-74
2023/11/02 02:11:33;;;;;;;0.60;0.60;;;-0.40;99.90;;;;;;4985377;28;20226;-74
2023/11/02 02:14:06;;;;;;;0.73;0.73;;;-0.40;99.90;;;;;;4986890;28;20705;-76
2023/11/02 02:16:44;;;;;;;0.60;0.60;;;-0.40;99.90;;;;;;4987106;28;20389;-74
2023/11/02 02:19:47;;;;;;;0.70;0.70;;;-0.30;99.90;;;;;;4986853;28;20729;-75
2023/11/02 02:22:20;;;;;;;0.70;0.70;;;-0.40;99.90;;;;;;4986986;28;20211;-74
2023/11/02 02:24:56;;;;;;;0.70;0.70;;;-0.40;99.90;;;;;;4987087;28;20830;-74
2023/11/02 02:27:33;;;;;;;0.70;0.70;;;-0.30;99.90;;;;;;4986790;28;20199;-73
2023/11/02 02:30:17;;;;;;;0.60;0.60;;;-0.30;99.90;;;;;;4986524;28;20306;-75
2023/11/02 02:33:19;;;;;;;0.68;0.68;;;-0.30;99.90;;;;;;4970631;28;20207;-74
2023/11/02 02:35:56;;;;;;;0.70;0.70;;;-0.30;99.90;;;;;;4987122;28;20734;-75
2023/11/02 02:38:37;;;;;;;0.70;0.70;;;-0.30;99.90;;;;;;4987155;28;20586;-73
2023/11/02 02:41:16;;;;;;;0.70;0.70;;;-0.30;99.90;;;;;;4987121;28;20237;-73
2023/11/02 02:43:43;;;;;;;0.60;0.60;;;-0.30;99.90;;;;;;5079059;28;20689;-74
2023/11/02 02:46:10;;;;;;;0.60;0.60;;;-0.30;99.90;;;;;;5089360;28;20211;-74
2023/11/02 02:48:36;;;;;;;0.80;0.80;;;-0.30;99.90;;;;;;5088999;28;20699;-73
2023/11/02 02:51:04;;;;;;;0.70;0.70;;;-0.30;99.90;;;;;;5089313;28;20236;-69
2023/11/02 02:53:33;;;;;;;0.80;0.80;;;-0.30;99.90;;;;;;5071416;28;20227;-69
2023/11/02 02:56:08;;;;;;;0.70;0.70;;;-0.40;99.90;;;;;;5081584;28;20292;-69
2023/11/02 02:58:43;;;;;;;0.70;0.70;;;-0.30;99.90;;;;;;5089549;28;20195;-70
2023/11/02 03:01:10;;;;;;;0.70;0.70;;;-0.30;99.90;;;;;;5089447;28;20191;-69
2023/11/02 03:03:38;;;;;;;0.70;0.70;;;-0.30;99.90;;;;;;5089486;28;20208;-69
2023/11/02 03:06:07;;;;;;;0.75;0.75;;;-0.30;99.90;;;;;;5080294;28;20188;-69
2023/11/02 03:08:35;;;;;;;0.68;0.68;;;-0.40;99.90;;;;;;5069196;28;20688;-69
2023/11/02 03:11:02;;;;;;;0.70;0.70;;;-0.30;99.90;;;;;;5069214;28;20664;-69
2023/11/02 03:13:29;;;;;;;0.60;0.60;;;-0.30;99.90;;;;;;5069021;28;20200;-71
2023/11/02 03:16:00;;;;;;;0.70;0.70;;;-0.40;99.90;;;;;;5069415;28;20274;-69
2023/11/02 03:18:34;;;;;;;0.70;0.70;;;-0.30;99.90;;;;;;5069112;28;20555;-69
2023/11/02 03:21:00;;;;;;;0.65;0.65;;;-0.30;99.90;;;;;;5069312;28;20216;-70
2023/11/02 03:23:47;;;;;;;0.60;0.60;;;-0.40;99.90;;;;;;5069246;28;20282;-69
2023/11/02 03:26:47;;;;;;;0.70;0.70;;;-0.40;99.90;;;;;;5067628;28;20216;-70
2023/11/02 03:29:31;;;;;;;0.70;0.70;;;-0.40;99.90;;;;;;5069029;28;20185;-69
2023/11/02 03:32:15;;;;;;;0.70;0.70;;;-0.40;99.90;;;;;;5075139;28;20199;-75
2023/11/02 03:34:55;;;;;;;0.73;0.73;;;-0.40;99.90;;;;;;5088642;28;20196;-74
2023/11/02 03:38:15;;;;;;;0.70;0.70;;;-0.40;99.90;;;;;;5088364;28;20223;-75
2023/11/02 03:41:03;;;;;;;0.60;0.60;;;-0.30;99.90;;;;;;5005920;28;20364;-73
2023/11/02 03:43:47;;;;;;;0.70;0.70;;;-0.40;99.90;;;;;;4984653;28;20218;-74
2023/11/02 03:46:40;;;;;;;0.65;0.65;;;-0.30;99.90;;;;;;5009233;28;20272;-74
2023/11/02 03:49:27;;;;;;;0.70;0.70;;;-0.40;99.90;;;;;;5026036;28;20701;-75
2023/11/02 03:52:07;;;;;;;0.70;0.70;;;-0.50;99.90;;;;;;5025713;28;20650;-73
2023/11/02 03:54:59;;;;;;;0.70;0.70;;;-0.50;99.90;;;;;;5011406;28;20256;-73
2023/11/02 03:57:31;;;;;;;0.60;0.60;;;-0.50;99.90;;;;;;4999186;28;20272;-74
2023/11/02 04:00:11;;;;;;;0.50;0.50;;;-0.50;99.90;;;;;;5029307;28;20206;-75
2023/11/02 04:02:51;;;;;;;0.60;0.60;;;-0.50;99.90;;;;;;4991570;28;20205;-69
2023/11/02 04:05:29;;;;;;;0.60;0.60;;;-0.50;99.90;;;;;;5008957;28;20314;-69
2023/11/02 04:08:18;;;;;;;0.60;0.60;;;-0.50;99.90;;;;;;4992588;28;20254;-70
2023/11/02 04:11:01;;;;;;;0.80;0.80;;;-0.50;99.90;;;;;;5033942;28;20208;-71
2023/11/02 04:13:39;;;;;;;0.80;0.80;;;-0.50;99.90;;;;;;5091482;28;20620;-69
2023/11/02 04:16:06;;;;;;;0.70;0.70;;;-0.50;99.90;;;;;;5091414;28;20196;-70
2023/11/02 04:18:32;;;;;;;0.70;0.70;;;-0.50;99.90;;;;;;5091577;28;20249;-70
2023/11/02 04:20:58;;;;;;;0.70;0.70;;;-0.50;99.90;;;;;;5087286;28;20299;-72
2023/11/02 04:23:24;;;;;;;0.70;0.70;;;-0.50;99.90;;;;;;5071123;28;20640;-70
2023/11/02 04:25:54;;;;;;;0.70;0.70;;;-0.50;99.90;;;;;;5071154;28;20673;-71
2023/11/02 04:28:20;;;;;;;0.70;0.70;;;-0.50;99.90;;;;;;5078453;28;20200;-69
2023/11/02 04:30:48;;;;;;;0.77;0.77;;;-0.40;99.90;;;;;;5091383;28;20281;-70
2023/11/02 04:33:14;;;;;;;0.70;0.70;;;-0.50;99.90;;;;;;5091530;28;20210;-68
2023/11/02 04:35:41;;;;;;;0.68;0.68;;;-0.40;99.90;;;;;;5091268;28;20559;-72
2023/11/02 04:38:08;;;;;;;0.70;0.70;;;-0.40;99.90;;;;;;5089935;28;20766;-69
2023/11/02 04:40:34;;;;;;;0.80;0.80;;;-0.40;99.90;;;;;;5091224;28;20200;-74
2023/11/02 04:43:00;;;;;;;0.70;0.70;;;-0.30;99.90;;;;;;5090098;28;20243;-69
2023/11/02 04:45:27;;;;;;;0.70;0.70;;;-0.30;99.90;;;;;;5091669;28;20192;-69
2023/11/02 04:47:53;;;;;;;0.60;0.60;;;-0.30;99.90;;;;;;5077566;28;20223;-70
2023/11/02 04:50:20;;;;;;;0.70;0.70;;;-0.30;99.90;;;;;;5071567;28;20189;-69
2023/11/02 04:52:46;;;;;;;0.73;0.73;;;-0.40;99.90;;;;;;5069660;28;20254;-69
2023/11/02 04:55:12;;;;;;;0.60;0.60;;;-0.30;99.90;;;;;;5078174;28;20227;-69
2023/11/02 04:57:38;;;;;;;0.60;0.60;;;-0.40;99.90;;;;;;5073210;28;20208;-70
2023/11/02 05:00:04;;;;;;;0.68;0.68;;;-0.30;99.90;;;;;;5073054;28;20273;-69
2023/11/02 05:02:33;;;;;;;0.60;0.60;;;-0.30;99.90;;;;;;5091064;28;20196;-68
2023/11/02 05:04:59;;;;;;;0.77;0.77;;;-0.30;99.90;;;;;;5071699;28;20675;-69
2023/11/02 05:07:25;;;;;;;0.70;0.70;;;-0.30;99.90;;;;;;5072703;28;20215;-70
2023/11/02 05:09:51;;;;;;;0.60;0.60;;;-0.30;99.90;;;;;;5091262;28;20879;-69
2023/11/02 05:12:16;;;;;;;0.70;0.70;;;-0.30;99.90;;;;;;5090892;28;20238;-74
2023/11/02 05:14:43;;;;;;;0.70;0.70;;;-0.30;99.90;;;;;;5090536;28;20207;-73
2023/11/02 05:17:09;;;;;;;0.80;0.80;;;-0.20;99.90;;;;;;5092682;28;20252;-74
2023/11/02 05:19:35;;;;;;;0.75;0.75;;;-0.20;99.90;;;;;;5110761;28;20207;-74
2023/11/02 05:22:01;;;;;;;0.70;0.70;;;-0.30;99.90;;;;;;5092543;28;20203;-72
2023/11/02 05:24:27;;;;;;;0.80;0.80;;;-0.20;99.90;;;;;;5110444;28;20248;-74
2023/11/02 05:26:52;;;;;;;0.80;0.80;;;-0.20;99.90;;;;;;5110672;28;20278;-73
2023/11/02 05:29:18;;;;;;;0.70;0.70;;;-0.20;99.90;;;;;;5110693;28;20191;-73
2023/11/02 05:31:44;;;;;;;0.90;0.90;;;-0.20;99.90;;;;;;5110650;28;20195;-76
2023/11/02 05:34:09;;;;;;;0.80;0.80;;;-0.20;99.90;;;;;;5111189;28;20195;-73
2023/11/02 05:36:35;;;;;;;0.70;0.70;;;-0.20;99.90;;;;;;5110277;28;20294;-74
2023/11/02 05:39:01;;;;;;;0.68;0.68;;;-0.30;99.90;;;;;;5110420;28;20240;-73
2023/11/02 05:41:26;;;;;;;0.70;0.70;;;-0.30;99.90;;;;;;5110261;28;20202;-74
2023/11/02 05:43:52;;;;;;;0.60;0.60;;;-0.20;99.90;;;;;;5110265;28;20278;-73
2023/11/02 05:46:18;;;;;;;0.70;0.70;;;-0.20;99.90;;;;;;5109361;28;20550;-73
2023/11/02 05:48:43;;;;;;;0.70;0.70;;;-0.20;99.90;;;;;;5089734;28;20192;-73
2023/11/02 05:51:09;;;;;;;0.70;0.70;;;-0.10;99.90;;;;;;5090127;28;20200;-72
2023/11/02 05:53:34;;;;;;;0.70;0.70;;;-0.20;99.90;;;;;;5089920;28;20196;-72
2023/11/02 05:56:00;;;;;;;0.60;0.60;;;-0.10;99.90;;;;;;5075816;28;20757;-71
2023/11/02 05:58:26;;;;;;;0.70;0.70;;;-0.20;99.90;;;;;;5069434;28;20193;-72
2023/11/02 06:00:52;;;;;;;0.68;0.68;;;-0.10;99.90;;;;;;5051629;28;20546;-72
2023/11/02 06:03:17;;;;;;;0.60;0.60;;;-0.10;99.90;;;;;;5051448;28;20630;-72
2023/11/02 06:05:43;;;;;;;0.68;0.68;;;-0.10;99.90;;;;;;5057203;28;20226;-72
2023/11/02 06:08:09;;;;;;;0.70;0.70;;;-0.10;99.90;;;;;;5089614;28;20279;-72
2023/11/02 06:10:35;;;;;;;0.70;0.70;;;-0.10;99.90;;;;;;5089568;28;20275;-72
2023/11/02 06:13:00;;;;;;;0.77;0.77;;;-0.20;99.90;;;;;;5089607;28;20199;-72
2023/11/02 06:15:27;;;;;;;0.70;0.70;;;-0.20;99.90;;;;;;5069858;28;20201;-72
2023/11/02 06:17:52;;;;;;;0.70;0.70;;;-0.20;99.90;;;;;;5050751;28;20287;-71
2023/11/02 06:20:18;;;;;;;0.80;0.80;;;-0.20;99.90;;;;;;5071919;28;20291;-72
2023/11/02 06:22:44;;;;;;;0.60;0.60;;;-0.10;99.90;;;;;;5089366;28;20271;-73
2023/11/02 06:25:11;;;;;;;0.60;0.60;;;-0.10;99.90;;;;;;5089347;28;20257;-73
2023/11/02 06:27:37;;;;;;;0.70;0.70;;;-0.20;99.90;;;;;;5070984;28;20207;-72
2023/11/02 06:30:03;;;;;;;0.70;0.70;;;-0.10;99.90;;;;;;5089315;28;20216;-73
2023/11/02 06:32:29;;;;;;;0.70;0.70;;;-0.10;99.90;;;;;;5088772;28;20576;-73
2023/11/02 06:34:54;;;;;;;0.70;0.70;;;-0.10;99.90;;;;;;5089349;28;20207;-72
2023/11/02 06:37:20;;;;;;;0.73;0.73;;;-0.10;99.90;;;;;;5088878;28;20200;-72
2023/11/02 06:39:48;;;;;;;0.60;0.60;;;0.00;99.90;;;;;;5089567;28;20192;-73
2023/11/02 06:42:14;;;;;;;0.70;0.70;;;0.00;99.90;;;;;;5071303;28;20200;-73
2023/11/02 06:44:43;;;;;;;0.82;0.82;;;0.00;99.90;;;;;;5070482;28;20200;-73
2023/11/02 06:47:10;;;;;;;0.60;0.60;;;0.00;99.90;;;;;;5068882;28;20185;-72
2023/11/02 06:49:36;;;;;;;0.70;0.70;;;0.00;99.90;;;;;;5050845;28;20676;-72
2023/11/02 06:52:02;;;;;;;0.73;0.73;;;0.00;99.90;;;;;;5050691;28;20207;-73
2023/11/02 06:54:28;;;;;;;0.80;0.80;;;0.00;99.90;;;;;;5069631;28;20204;-72
2023/11/02 06:56:54;;;;;;;0.70;0.70;;;0.10;99.90;;;;;;5089124;28;20285;-73
2023/11/02 06:59:20;;;;;;;0.70;0.70;;;0.10;99.90;;;;;;5089161;28;20200;-72
2023/11/02 07:01:50;;;;;;;0.70;0.70;;;0.10;99.90;;;;;;5089155;28;20192;-72
2023/11/02 07:04:16;;;;;;;0.50;0.50;;;0.10;99.90;;;;;;5088833;28;20211;-72
2023/11/02 07:06:42;;;;;;;0.60;0.60;;;0.10;99.90;;;;;;5084759;28;20198;-72
2023/11/02 07:09:08;;;;;;;0.70;0.70;;;0.10;99.90;;;;;;5109773;28;20662;-72
2023/11/02 07:11:33;;;;;;;0.70;0.70;;;0.10;99.90;;;;;;5090776;28;20196;-72
2023/11/02 07:14:00;;;;;;;0.70;0.70;;;0.00;99.90;;;;;;5089041;28;20731;-72
2023/11/02 07:16:26;;;;;;;0.60;0.60;;;0.10;99.90;;;;;;5090434;28;20188;-72
2023/11/02 07:18:52;;;;;;;0.77;0.77;;;0.10;99.90;;;;;;5109239;28;20594;-73
2023/11/02 07:21:17;;;;;;;0.70;0.70;;;0.10;99.90;;;;;;5109117;28;20274;-73
2023/11/02 07:23:43;;;;;;;1.60;1.50;;;0.10;99.90;;;;;;5108798;28;20211;-73
2023/11/02 07:26:09;;;;;;;0.60;0.60;;;0.10;99.90;;;;;;5090726;28;20195;-72
2023/11/02 07:28:35;;;;;;;0.60;0.60;;;0.10;99.90;;;;;;5109919;28;20214;-72
2023/11/02 07:31:03;;;;;;;0.70;0.70;;;0.20;99.90;;;;;;5113090;28;20268;-70
2023/11/02 07:33:28;;;;;;;0.70;0.70;;;0.20;99.90;;;;;;5112986;28;20302;-69
2023/11/02 07:35:54;;;;;;;0.60;0.60;;;0.20;99.90;;;;;;5113042;28;20714;-70
2023/11/02 07:38:20;;;;;;;0.57;0.57;;;0.30;99.90;;;;;;5112843;28;20202;-70
2023/11/02 07:40:46;;;;;;;0.93;0.93;;;0.30;99.90;;;;;;5113028;28;20249;-69
2023/11/02 07:43:12;;;;;;;1.30;1.15;;;0.30;99.90;;;;;;5112966;28;20203;-71
2023/11/02 07:45:38;;;;;;;0.70;0.70;;;0.30;99.90;;;;;;5112656;28;20199;-69
2023/11/02 07:48:04;;;;;;;0.60;0.60;;;0.40;99.90;;;;;;5112790;28;20195;-69
2023/11/02 07:50:29;;;;;;;0.70;0.70;;;0.30;99.90;;;;;;5112569;28;20211;-69
2023/11/02 07:52:55;;;;;;;0.77;0.77;;;0.40;99.90;;;;;;5112672;28;20234;-69
2023/11/02 07:55:21;;;;;;;0.70;0.70;;;0.30;99.90;;;;;;5103795;28;20228;-69
2023/11/02 07:57:47;;;;;;;0.70;0.70;;;0.30;99.90;;;;;;5092080;28;20227;-69
2023/11/02 08:00:15;;;;;;;0.60;0.60;;;0.30;99.90;;;;;;5092417;28;20227;-69
2023/11/02 08:02:42;;;;;;;0.70;0.70;;;0.30;99.90;;;;;;5091523;28;20617;-69
2023/11/02 08:05:08;;;;;;;0.80;0.80;;;0.40;99.90;;;;;;5091729;28;20210;-70
2023/11/02 08:07:34;;;;;;;0.60;0.60;;;0.40;99.90;;;;;;5075563;28;20211;-70
2023/11/02 08:09:59;;;;;;;0.60;0.60;;;0.40;99.90;;;;;;5071542;28;20250;-69
2023/11/02 08:12:25;;;;;;;0.70;0.70;;;0.40;99.90;;;;;;5071564;28;20718;-69
2023/11/02 08:14:51;;;;;;;0.80;0.80;;;0.40;99.90;;;;;;5091553;28;20221;-68
2023/11/02 08:17:19;;;;;;;0.73;0.73;;;0.50;99.90;;;;;;5091854;28;20200;-69
2023/11/02 08:19:46;;;;;;;0.63;0.63;;;0.50;99.90;;;;;;5091910;28;20211;-69
2023/11/02 08:22:12;;;;;;;0.70;0.70;;;0.50;99.90;;;;;;5091790;28;20271;-69
2023/11/02 08:24:38;;;;;;;5.45;1.23;;;0.50;99.90;;;;;;5091360;28;20793;-69
2023/11/02 08:27:05;;;;;;;1.13;1.13;;;0.60;99.90;;;;;;5091506;28;20195;-68
2023/11/02 08:29:31;;;;;;;0.77;0.77;;;0.60;99.90;;;;;;5073362;28;20224;-69
2023/11/02 08:31:58;;;;;;;1.40;1.27;;;0.60;99.90;;;;;;5091598;28;20227;-69
2023/11/02 08:34:23;;;;;;;0.60;0.60;;;0.60;99.90;;;;;;5091408;28;20250;-69
2023/11/02 08:36:49;;;;;;;0.60;0.60;;;0.60;99.90;;;;;;5091512;28;20200;-69
2023/11/02 08:39:15;;;;;;;0.77;0.77;;;0.60;99.90;;;;;;5091460;28;20200;-69
2023/11/02 08:41:41;;;;;;;0.70;0.70;;;0.70;99.90;;;;;;5091659;28;20200;-69
2023/11/02 08:44:06;;;;;;;0.60;0.60;;;0.70;99.90;;;;;;5091367;28;20204;-68
2023/11/02 08:46:34;;;;;;;0.68;0.68;;;0.70;99.90;;;;;;5091176;28;20663;-69
2023/11/02 08:49:00;;;;;;;0.68;0.68;;;0.70;99.90;;;;;;5091330;28;20188;-68
2023/11/02 08:51:25;;;;;;;0.60;0.60;;;0.70;99.90;;;;;;5090810;28;20208;-69
2023/11/02 08:53:52;;;;;;;0.60;0.60;;;0.70;99.90;;;;;;5090682;28;20207;-69
2023/11/02 08:56:18;;;;;;;0.80;0.80;;;0.70;99.90;;;;;;5086933;28;20573;-69
2023/11/02 08:58:52;;;;;;;0.70;0.70;;;0.70;99.90;;;;;;5090968;28;20287;-69
2023/11/02 09:01:23;;;;;;;0.60;0.60;;;0.70;99.90;;;;;;5090970;28;20210;-69
2023/11/02 09:03:53;;;;;;;0.60;0.60;;;0.70;99.90;;;;;;5107035;28;20199;-69
2023/11/02 09:06:20;;;;;;;0.75;0.75;;;0.70;99.90;;;;;;5111286;28;20200;-69
2023/11/02 09:08:46;;;;;;;0.63;0.63;;;0.80;99.90;;;;;;5092155;28;20693;-70
2023/11/02 09:11:14;;;;;;;0.52;0.52;;;0.80;99.90;;;;;;5090909;28;20232;-69
2023/11/02 09:13:39;;;;;;;0.98;0.98;;;0.80;99.90;;;;;;5090687;28;20573;-69
2023/11/02 09:16:06;;;;;;;0.70;0.70;;;0.80;99.90;;;;;;5090781;28;20192;-69
2023/11/02 09:18:31;;;;;;;0.60;0.60;;;0.80;99.90;;;;;;5090382;28;20200;-69
2023/11/02 09:20:57;;;;;;;0.75;0.75;;;0.80;99.90;;;;;;5098871;28;20304;-69
2023/11/02 09:23:23;;;;;;;0.70;0.70;;;0.80;99.90;;;;;;5110484;28;20195;-69
2023/11/02 09:25:49;;;;;;;0.60;0.60;;;0.80;99.90;;;;;;5110880;28;20561;-69
2023/11/02 09:28:15;;;;;;;0.70;0.70;;;0.70;99.90;;;;;;5110837;28;20213;-70
2023/11/02 09:30:43;;;;;;;0.60;0.60;;;0.70;99.90;;;;;;5110920;28;20183;-70
2023/11/02 09:33:09;;;;;;;0.70;0.70;;;0.70;99.90;;;;;;5076450;28;20279;-69
2023/11/02 09:35:35;;;;;;;0.70;0.70;;;0.70;99.90;;;;;;5072120;28;20214;-69
2023/11/02 09:38:01;;;;;;;0.60;0.60;;;0.70;99.90;;;;;;5071923;28;20228;-69
2023/11/02 09:40:27;;;;;;;0.70;0.70;;;0.70;99.90;;;;;;5090196;28;20851;-69
2023/11/02 09:42:53;;;;;;;0.80;0.80;;;0.80;99.90;;;;;;5090261;28;20598;-70
2023/11/02 09:45:19;;;;;;;0.65;0.65;;;0.80;99.90;;;;;;5089945;28;20211;-69
2023/11/02 09:47:45;;;;;;;0.80;0.80;;;0.90;99.90;;;;;;5089962;28;20241;-69
2023/11/02 09:50:12;;;;;;;0.60;0.60;;;0.90;99.90;;;;;;5090099;28;20587;-70
2023/11/02 09:52:39;;;;;;;0.70;0.70;;;0.90;99.90;;;;;;5089554;28;20550;-71
2023/11/02 09:55:05;;;;;;;0.60;0.60;;;0.90;99.90;;;;;;5083868;28;20731;-72
2023/11/02 09:57:31;;;;;;;0.70;0.70;;;0.90;99.90;;;;;;5069209;28;20291;-71
2023/11/02 09:59:58;;;;;;;0.60;0.60;;;0.90;99.90;;;;;;5069314;28;20659;-72
2023/11/02 10:02:24;;;;;;;0.68;0.68;;;0.90;99.90;;;;;;5069529;28;20217;-72
2023/11/02 10:04:50;;;;;;;0.60;0.60;;;0.90;99.90;;;;;;5069424;28;20219;-71
2023/11/02 10:07:17;;;;;;;0.60;0.60;;;0.90;99.90;;;;;;5069495;28;20197;-71
2023/11/02 10:09:43;;;;;;;0.60;0.60;;;1.00;99.90;;;;;;5069539;28;20664;-71
2023/11/02 10:12:09;;;;;;;0.85;0.85;;;1.00;99.90;;;;;;5069422;28;20188;-71
2023/11/02 10:14:35;;;;;;;0.68;0.68;;;1.10;99.90;;;;;;5051249;28;20201;-71
2023/11/02 10:17:05;;;;;;;0.70;0.70;;;1.10;99.90;;;;;;5057681;28;20200;-71
2023/11/02 10:19:32;;;;;;;0.45;0.45;;;1.10;99.90;;;;;;5069267;28;20243;-71
2023/11/02 10:21:59;;;;;;;0.63;0.63;;;1.20;99.90;;;;;;5051454;28;20201;-71
2023/11/02 10:24:34;;;;;;;0.73;0.73;;;1.20;99.90;;;;;;5069108;28;20205;-71
2023/11/02 10:27:03;;;;;;;0.60;0.60;;;1.20;99.90;;;;;;5051279;28;20637;-71
2023/11/02 10:29:35;;;;;;;0.65;0.65;;;1.20;99.90;;;;;;5068956;28;20212;-70
2023/11/02 10:32:00;;;;;;;1.80;1.70;;;1.20;99.90;;;;;;5069374;28;20221;-71
2023/11/02 10:34:27;;;;;;;0.93;0.93;;;1.20;99.90;;;;;;5069031;28;20232;-71
2023/11/02 10:36:54;;;;;;;0.63;0.63;;;1.30;99.90;;;;;;5069116;28;20227;-70
2023/11/02 10:39:21;;;;;;;0.52;0.52;;;1.20;99.90;;;;;;5050773;28;20204;-71
2023/11/02 10:42:00;;;;;;;0.63;0.63;;;1.20;99.90;;;;;;5069392;28;20197;-71
2023/11/02 10:44:30;;;;;;;0.70;0.70;;;1.20;99.90;;;;;;5068886;28;20254;-71
2023/11/02 10:46:59;;;;;;;0.60;0.60;;;1.20;99.90;;;;;;5069008;28;20197;-70
2023/11/02 10:49:29;;;;;;;0.60;0.60;;;1.20;99.90;;;;;;5068606;28;20188;-71
2023/11/02 10:51:57;;;;;;;0.60;0.60;;;1.20;99.90;;;;;;5068964;28;20189;-71
2023/11/02 10:55:01;;;;;;;0.60;0.60;;;1.20;99.90;;;;;;5068682;28;20206;-70
2023/11/02 10:57:29;;;;;;;1.08;1.05;;;1.20;99.90;;;;;;5073594;28;20273;-71
2023/11/02 11:00:03;;;;;;;0.63;0.63;;;1.20;99.90;;;;;;5088962;28;20278;-71
2023/11/02 11:02:31;;;;;;;0.47;0.47;;;1.30;99.90;;;;;;5090020;28;20204;-67
2023/11/02 11:04:58;;;;;;;0.60;0.60;;;1.30;99.90;;;;;;5092969;28;20291;-70
2023/11/02 11:07:24;;;;;;;0.47;0.47;;;1.30;99.90;;;;;;5093019;28;20679;-67
2023/11/02 11:09:50;;;;;;;0.60;0.60;;;1.20;99.90;;;;;;5093228;28;20722;-69
2023/11/02 11:12:20;;;;;;;0.70;0.70;;;1.20;99.90;;;;;;5092932;28;20736;-67
2023/11/02 11:14:48;;;;;;;1.00;0.90;;;1.20;99.90;;;;;;5092823;28;20684;-67
2023/11/02 11:17:14;;;;;;;0.68;0.68;;;1.20;99.90;;;;;;5093049;28;20196;-67
2023/11/02 11:19:40;;;;;;;0.60;0.60;;;1.20;99.90;;;;;;5092887;28;20192;-67
2023/11/02 11:22:20;;;;;;;0.60;0.60;;;1.20;99.90;;;;;;5092941;28;20253;-68
2023/11/02 11:25:00;;;;;;;0.60;0.60;;;1.20;99.90;;;;;;5092865;28;20231;-68
2023/11/02 11:27:30;;;;;;;0.60;0.60;;;1.20;99.90;;;;;;5092696;28;20537;-67
2023/11/02 11:29:56;;;;;;;1.80;1.67;;;1.20;99.90;;;;;;5092833;28;20271;-67
2023/11/02 11:32:25;;;;;;;0.70;0.70;;;1.20;99.90;;;;;;5092939;28;20270;-68
2023/11/02 11:34:53;;;;;;;0.68;0.68;;;1.20;99.90;;;;;;5092671;28;20665;-67
2023/11/02 11:40:20;;;;;;;0.60;0.60;;;1.30;99.90;;;;;;5092620;28;20674;-67
2023/11/02 11:42:52;;;;;;;0.60;0.60;;;1.30;99.90;;;;;;5092419;28;20224;-69
2023/11/02 11:45:25;;;;;;;0.60;0.60;;;1.30;99.90;;;;;;5092258;28;20287;-67
2023/11/02 11:47:52;;;;;;;0.70;0.70;;;1.30;99.90;;;;;;5092690;28;20271;-68
2023/11/02 11:50:39;;;;;;;0.60;0.60;;;1.30;99.90;;;;;;5092388;28;20191;-68
2023/11/02 11:53:08;;;;;;;0.70;0.70;;;1.30;99.90;;;;;;5071970;28;20200;-67
2023/11/02 11:55:37;;;;;;;0.70;0.70;;;1.30;99.90;;;;;;5074150;28;20259;-68
2023/11/02 11:58:06;;;;;;;0.68;0.68;;;1.30;99.90;;;;;;5076777;28;20203;-68
2023/11/02 12:00:32;;;;;;;0.65;0.65;;;1.30;99.90;;;;;;5091984;28;20206;-70
2023/11/02 12:03:03;;;;;;;0.55;0.55;;;1.40;99.90;;;;;;5091821;28;20200;-70
2023/11/02 12:05:44;;;;;;;0.77;0.75;;;1.30;99.90;;;;;;5091613;28;20204;-65
2023/11/02 12:08:11;;;;;;;0.82;0.82;;;1.30;99.90;;;;;;5092014;28;20274;-66
2023/11/02 12:10:47;;;;;;;0.57;0.57;;;1.30;99.90;;;;;;5091750;28;20318;-66
2023/11/02 12:13:13;;;;;;;0.60;0.60;;;1.30;99.90;;;;;;5092049;28;20184;-66
2023/11/02 12:16:03;;;;;;;0.50;0.50;;;1.30;99.90;;;;;;5091290;28;20301;-66
2023/11/02 12:18:33;;;;;;;0.77;0.77;;;1.30;99.90;;;;;;5091700;28;20200;-67
2023/11/02 12:21:09;;;;;;;0.65;0.65;;;1.30;99.90;;;;;;5082816;28;20201;-67
2023/11/02 12:23:37;;;;;;;0.57;0.57;;;1.30;99.90;;;;;;5071188;28;20201;-66
2023/11/02 12:26:04;;;;;;;0.60;0.60;;;1.30;99.90;;;;;;5071521;28;20786;-66
2023/11/02 12:28:55;;;;;;;0.60;0.60;;;1.30;99.90;;;;;;5054446;28;20222;-68
2023/11/02 12:31:36;;;;;;;0.55;0.55;;;1.30;99.90;;;;;;5057218;28;20197;-70
2023/11/02 12:34:03;;;;;;;0.57;0.57;;;1.30;99.90;;;;;;5071434;28;20219;-70
2023/11/02 12:36:29;;;;;;;0.60;0.60;;;1.30;99.90;;;;;;5071034;28;20638;-70
2023/11/02 12:38:58;;;;;;;0.60;0.60;;;1.30;99.90;;;;;;5071418;28;20280;-70
2023/11/02 12:41:24;;;;;;;1.38;1.27;;;1.30;99.90;;;;;;5053112;28;20201;-68
2023/11/02 12:44:11;;;;;;;0.60;0.60;;;1.30;99.90;;;;;;5053060;28;20212;-68
2023/11/02 12:46:42;;;;;;;0.60;0.60;;;1.30;99.90;;;;;;5069933;28;20631;-68
2023/11/02 12:49:11;;;;;;;0.60;0.60;;;1.30;99.90;;;;;;5071090;28;20216;-68
2023/11/02 12:51:38;;;;;;;0.65;0.65;;;1.40;99.90;;;;;;5053238;28;20228;-68
2023/11/02 12:54:09;;;;;;;0.60;0.60;;;1.30;99.90;;;;;;5074392;28;20192;-68
2023/11/02 12:56:34;;;;;;;0.60;0.60;;;1.30;99.90;;;;;;5109009;28;20231;-68
2023/11/02 12:59:05;;;;;;;0.60;0.60;;;1.30;99.90;;;;;;5111421;28;20286;-68
2023/11/02 13:01:54;;;;;;;0.70;0.70;;;1.30;99.90;;;;;;5111293;28;20191;-69
2023/11/02 13:04:45;;;;;;;0.65;0.65;;;1.30;99.90;;;;;;5093083;28;20688;-69
2023/11/02 13:07:25;;;;;;;0.63;0.63;;;1.40;99.90;;;;;;5092514;28;20662;-69
2023/11/02 13:10:04;;;;;;;0.70;0.70;;;1.40;99.90;;;;;;5092970;28;20658;-69
2023/11/02 13:12:30;;;;;;;0.50;0.50;;;1.40;99.90;;;;;;5111159;28;20611;-70
2023/11/02 13:14:56;;;;;;;0.50;0.50;;;1.40;99.90;;;;;;5111356;28;20191;-70